Time;durP1;ratioP1;P1;durP2;ratioP2;P2;SDS_P1;SDS_P2;PMS_P1;PMS_P2;Temp;Humidity;BMP_temperature;BMP_pressure;BME280_temperature;BME280_humidity;BME280_pressure;Samples;Min_cycle;Max_cycle;Signal;HPM_P1;HPM_P2
2021/06/07 00:01:21;;;;;;;4.53;3.43;;;19.80;1.00;;;;;;5078108;28;20446;-71
2021/06/07 00:03:48;;;;;;;3.43;3.13;;;19.70;1.00;;;;;;5077768;28;20446;-71
2021/06/07 00:06:16;;;;;;;4.83;3.53;;;19.70;1.00;;;;;;5077725;28;20478;-70
2021/06/07 00:08:44;;;;;;;4.30;3.47;;;19.60;1.00;;;;;;5078377;28;20529;-71
2021/06/07 00:11:10;;;;;;;3.47;3.17;;;19.60;1.00;;;;;;5078437;28;20471;-71
2021/06/07 00:13:38;;;;;;;2.93;2.73;;;19.50;1.00;;;;;;5077894;28;20469;-71
2021/06/07 00:16:05;;;;;;;3.73;3.33;;;19.50;1.00;;;;;;5077792;28;20531;-71
2021/06/07 00:18:32;;;;;;;3.77;3.47;;;19.50;1.00;;;;;;5078441;28;20777;-71
2021/06/07 00:21:02;;;;;;;3.93;3.53;;;19.40;1.00;;;;;;5078400;28;20531;-71
2021/06/07 00:23:28;;;;;;;5.10;3.30;;;19.40;1.00;;;;;;5077786;28;20611;-71
2021/06/07 00:25:56;;;;;;;3.97;3.57;;;19.40;1.00;;;;;;5077918;28;20486;-71
2021/06/07 00:28:23;;;;;;;3.83;3.53;;;19.30;1.00;;;;;;5077379;28;20474;-76
2021/06/07 00:30:50;;;;;;;3.60;2.90;;;19.20;1.00;;;;;;5077239;28;20898;-70
2021/06/07 00:33:16;;;;;;;3.40;2.80;;;19.20;1.00;;;;;;5077303;28;20461;-70
2021/06/07 00:35:43;;;;;;;3.60;3.00;;;19.10;1.00;;;;;;5077600;28;20462;-70
2021/06/07 00:38:09;;;;;;;3.43;3.13;;;19.10;1.00;;;;;;5077664;28;20458;-70
2021/06/07 00:40:36;;;;;;;3.50;3.20;;;19.00;1.00;;;;;;5077627;28;20458;-71
2021/06/07 00:43:03;;;;;;;3.10;2.90;;;19.00;1.00;;;;;;5077799;28;20491;-71
2021/06/07 00:45:32;;;;;;;3.17;2.60;;;19.00;1.00;;;;;;5077699;28;20985;-71
2021/06/07 00:48:02;;;;;;;3.53;3.23;;;19.00;1.00;;;;;;5078077;28;20458;-71
2021/06/07 00:50:35;;;;;;;3.63;3.33;;;18.90;1.00;;;;;;5079610;28;20486;-71
2021/06/07 00:53:03;;;;;;;3.30;3.10;;;18.80;1.00;;;;;;5078042;28;20447;-71
2021/06/07 00:55:31;;;;;;;3.60;3.30;;;18.80;1.00;;;;;;5077906;28;20895;-71
2021/06/07 00:57:59;;;;;;;3.40;3.10;;;18.70;1.00;;;;;;5078270;28;20485;-71
2021/06/07 01:00:27;;;;;;;3.07;2.87;;;18.70;1.00;;;;;;5078071;28;20795;-71
2021/06/07 01:02:56;;;;;;;5.57;3.63;;;18.70;1.00;;;;;;5076476;28;20454;-71
2021/06/07 01:05:26;;;;;;;6.03;3.03;;;18.60;1.00;;;;;;5077658;28;20482;-71
2021/06/07 01:07:54;;;;;;;3.43;3.23;;;18.60;1.00;;;;;;5078308;28;20459;-71
2021/06/07 01:10:21;;;;;;;3.83;3.40;;;18.50;1.00;;;;;;5078780;28;20791;-70
2021/06/07 01:12:47;;;;;;;4.57;3.27;;;18.50;1.00;;;;;;5077487;28;20458;-70
2021/06/07 01:15:15;;;;;;;4.37;3.53;;;18.40;1.00;;;;;;5078436;28;20480;-70
2021/06/07 01:17:43;;;;;;;3.60;3.30;;;18.40;1.00;;;;;;5079110;28;20458;-70
2021/06/07 01:20:14;;;;;;;8.00;4.00;;;18.40;1.00;;;;;;5079314;28;20469;-70
2021/06/07 01:22:42;;;;;;;3.40;3.10;;;18.30;1.00;;;;;;5077185;28;20482;-70
2021/06/07 01:25:11;;;;;;;3.70;3.40;;;18.30;1.00;;;;;;5077128;28;20478;-70
2021/06/07 01:27:39;;;;;;;3.60;3.30;;;18.30;1.00;;;;;;5077037;28;20529;-71
2021/06/07 01:30:09;;;;;;;3.80;3.13;;;18.30;1.00;;;;;;5077165;28;20462;-71
2021/06/07 01:32:35;;;;;;;7.10;3.13;;;18.20;1.00;;;;;;5076534;28;20446;-71
2021/06/07 01:35:02;;;;;;;4.67;3.40;;;18.10;1.00;;;;;;5076940;28;20458;-71
2021/06/07 01:37:29;;;;;;;3.13;2.90;;;18.10;1.00;;;;;;5077043;28;20737;-71
2021/06/07 01:39:56;;;;;;;3.83;3.53;;;18.10;1.00;;;;;;5076822;28;20852;-71
2021/06/07 01:42:23;;;;;;;3.53;3.23;;;18.00;1.00;;;;;;5076572;28;20488;-71
2021/06/07 01:44:49;;;;;;;4.43;3.50;;;18.00;1.00;;;;;;5076780;28;20478;-71
2021/06/07 01:47:15;;;;;;;4.47;3.40;;;17.90;1.00;;;;;;5076752;28;20454;-71
2021/06/07 01:49:44;;;;;;;3.93;3.57;;;17.90;1.00;;;;;;5076432;28;20473;-71
2021/06/07 01:52:11;;;;;;;4.23;3.67;;;17.90;1.00;;;;;;5076270;28;20458;-71
2021/06/07 01:54:37;;;;;;;4.03;3.63;;;17.80;1.00;;;;;;5077100;28;20523;-71
2021/06/07 01:57:06;;;;;;;5.20;3.80;;;17.80;1.00;;;;;;5076692;28;20485;-71
2021/06/07 01:59:32;;;;;;;4.10;3.70;;;17.70;1.00;;;;;;5077846;28;20768;-71
2021/06/07 02:01:59;;;;;;;3.83;3.30;;;17.70;1.00;;;;;;5076853;28;20458;-71
2021/06/07 02:04:25;;;;;;;4.67;3.57;;;17.60;1.00;;;;;;5078217;28;20777;-71
2021/06/07 02:06:51;;;;;;;4.30;3.80;;;17.60;1.00;;;;;;5078205;28;20899;-71
2021/06/07 02:09:17;;;;;;;4.43;3.83;;;17.50;1.00;;;;;;5077935;28;20465;-71
2021/06/07 02:11:43;;;;;;;3.83;3.53;;;17.50;1.00;;;;;;5078760;28;20458;-71
2021/06/07 02:14:11;;;;;;;4.20;3.77;;;17.40;1.00;;;;;;5078053;28;20940;-71
2021/06/07 02:16:39;;;;;;;4.20;3.80;;;17.40;1.00;;;;;;5078448;28;20457;-71
2021/06/07 02:19:08;;;;;;;4.60;3.97;;;17.40;1.00;;;;;;5077963;28;20450;-71
2021/06/07 02:21:35;;;;;;;4.23;3.93;;;17.30;1.00;;;;;;5077474;28;20523;-71
2021/06/07 02:24:05;;;;;;;4.00;3.60;;;17.30;1.00;;;;;;5076680;28;20439;-71
2021/06/07 02:26:31;;;;;;;5.00;3.73;;;17.20;1.00;;;;;;5078200;28;20489;-72
2021/06/07 02:29:02;;;;;;;4.40;3.67;;;17.20;1.00;;;;;;5078852;28;20515;-71
2021/06/07 02:31:31;;;;;;;4.90;3.73;;;17.20;1.00;;;;;;5080759;28;20438;-72
2021/06/07 02:33:59;;;;;;;3.77;3.43;;;17.20;1.00;;;;;;5078818;28;20465;-72
2021/06/07 02:36:27;;;;;;;5.43;3.80;;;17.10;1.00;;;;;;5080922;28;20449;-72
2021/06/07 02:38:54;;;;;;;4.40;4.00;;;17.10;1.00;;;;;;5080644;28;20458;-72
2021/06/07 02:41:21;;;;;;;4.30;3.90;;;17.10;1.00;;;;;;5080060;28;20512;-72
2021/06/07 02:43:48;;;;;;;4.57;4.20;;;17.00;1.00;;;;;;5077846;28;20462;-71
2021/06/07 02:46:15;;;;;;;4.27;3.87;;;17.00;1.00;;;;;;5077233;28;20478;-71
2021/06/07 02:48:43;;;;;;;4.67;4.23;;;17.00;1.00;;;;;;5077276;28;20458;-72
2021/06/07 02:51:10;;;;;;;4.80;4.23;;;17.00;1.00;;;;;;5077871;28;20731;-70
2021/06/07 02:53:36;;;;;;;4.47;4.07;;;17.00;1.00;;;;;;5077769;28;20454;-70
2021/06/07 02:56:03;;;;;;;5.20;4.70;;;16.90;1.00;;;;;;5078113;28;20454;-71
2021/06/07 02:58:29;;;;;;;4.53;4.20;;;16.90;1.00;;;;;;5077627;28;20775;-71
2021/06/07 03:00:59;;;;;;;4.60;4.20;;;16.90;1.00;;;;;;5077266;28;20458;-72
2021/06/07 03:03:26;;;;;;;4.33;3.93;;;16.80;1.00;;;;;;5076418;28;20454;-71
2021/06/07 03:05:55;;;;;;;5.00;4.50;;;16.80;1.00;;;;;;5076764;28;20474;-72
2021/06/07 03:08:24;;;;;;;5.00;4.20;;;16.80;1.00;;;;;;5077538;28;20458;-71
2021/06/07 03:10:53;;;;;;;4.87;4.47;;;16.80;1.00;;;;;;5077251;28;20461;-71
2021/06/07 03:13:19;;;;;;;4.30;3.90;;;16.80;1.00;;;;;;5076783;28;20458;-71
2021/06/07 03:15:46;;;;;;;5.23;4.70;;;16.80;1.00;;;;;;5076470;28;20458;-71
2021/06/07 03:18:12;;;;;;;4.30;4.00;;;16.70;1.00;;;;;;5075778;28;20458;-71
2021/06/07 03:20:39;;;;;;;4.67;4.27;;;16.70;1.00;;;;;;5076082;28;20454;-71
2021/06/07 03:23:10;;;;;;;6.40;3.80;;;16.70;1.00;;;;;;5075661;28;20973;-71
2021/06/07 03:25:36;;;;;;;4.83;4.40;;;16.70;1.00;;;;;;5076197;28;20466;-72
2021/06/07 03:28:04;;;;;;;4.93;4.53;;;16.70;1.00;;;;;;5079174;28;20644;-71
2021/06/07 03:30:33;;;;;;;4.73;4.33;;;16.70;1.00;;;;;;5079104;28;20458;-71
2021/06/07 03:33:00;;;;;;;5.20;4.70;;;16.70;1.00;;;;;;5078884;28;20458;-71
2021/06/07 03:35:26;;;;;;;5.20;4.70;;;16.70;1.00;;;;;;5079353;28;20450;-71
2021/06/07 03:37:53;;;;;;;5.20;4.70;;;16.60;1.00;;;;;;5079713;28;20458;-72
2021/06/07 03:40:25;;;;;;;4.67;4.07;;;16.60;1.00;;;;;;5078830;28;20498;-71
2021/06/07 03:42:52;;;;;;;5.70;4.93;;;16.60;1.00;;;;;;5078878;28;20452;-71
2021/06/07 03:45:18;;;;;;;8.73;4.80;;;16.60;1.00;;;;;;5078738;28;20477;-72
2021/06/07 03:47:46;;;;;;;6.20;4.97;;;16.60;1.00;;;;;;5078433;28;20519;-71
2021/06/07 03:50:14;;;;;;;5.33;4.80;;;16.60;1.00;;;;;;5078437;28;20469;-71
2021/06/07 03:52:43;;;;;;;7.83;5.13;;;16.60;1.00;;;;;;5079275;28;20519;-72
2021/06/07 03:55:11;;;;;;;5.90;4.70;;;16.60;1.00;;;;;;5081235;28;20515;-73
2021/06/07 03:57:39;;;;;;;5.47;5.00;;;16.60;1.00;;;;;;5080889;28;20747;-70
2021/06/07 04:00:07;;;;;;;8.30;4.73;;;16.60;1.00;;;;;;5078897;28;20455;-73
2021/06/07 04:02:33;;;;;;;6.00;5.40;;;16.60;1.00;;;;;;5078621;28;20473;-72
2021/06/07 04:04:59;;;;;;;4.90;4.50;;;16.60;1.00;;;;;;5078277;28;20859;-71
2021/06/07 04:07:26;;;;;;;5.67;5.17;;;16.60;1.00;;;;;;5078214;28;20541;-71
2021/06/07 04:09:52;;;;;;;5.50;4.30;;;16.60;1.00;;;;;;5078143;28;20473;-72
2021/06/07 04:12:19;;;;;;;4.90;4.50;;;16.60;1.00;;;;;;5078655;28;20454;-72
2021/06/07 04:14:46;;;;;;;5.63;4.80;;;16.60;1.00;;;;;;5078969;28;20512;-72
2021/06/07 04:17:12;;;;;;;6.77;4.23;;;16.70;1.00;;;;;;5077762;28;20462;-72
2021/06/07 04:19:38;;;;;;;6.50;4.70;;;16.70;1.00;;;;;;5078101;28;20458;-71
2021/06/07 04:22:05;;;;;;;5.27;4.83;;;16.70;1.00;;;;;;5077715;28;20497;-72
2021/06/07 04:24:31;;;;;;;6.20;4.60;;;16.80;1.00;;;;;;5078402;28;20787;-72
2021/06/07 04:26:58;;;;;;;5.03;4.60;;;16.80;1.00;;;;;;5078673;28;20532;-72
2021/06/07 04:29:24;;;;;;;6.90;4.40;;;16.90;1.00;;;;;;5078636;28;20474;-72
2021/06/07 04:31:53;;;;;;;5.83;4.97;;;16.90;1.00;;;;;;5078122;28;20465;-72
2021/06/07 04:34:19;;;;;;;5.27;4.80;;;16.90;1.00;;;;;;5077987;28;20934;-72
2021/06/07 04:36:45;;;;;;;5.20;4.70;;;17.00;1.00;;;;;;5077299;28;20454;-72
2021/06/07 04:39:11;;;;;;;5.20;4.30;;;17.00;1.00;;;;;;5078570;28;20575;-72
2021/06/07 04:41:38;;;;;;;5.93;4.70;;;17.10;1.00;;;;;;5077773;28;20458;-71
2021/06/07 04:44:04;;;;;;;4.63;4.23;;;17.10;1.00;;;;;;5078300;28;20465;-71
2021/06/07 04:46:32;;;;;;;5.23;4.60;;;17.10;1.00;;;;;;5078382;28;20794;-72
2021/06/07 04:48:59;;;;;;;6.87;4.37;;;17.10;1.00;;;;;;5078666;28;20458;-72
2021/06/07 04:51:26;;;;;;;6.10;4.87;;;17.20;1.00;;;;;;5079564;28;20469;-72
2021/06/07 04:53:52;;;;;;;4.57;4.17;;;17.20;1.00;;;;;;5080490;28;20469;-71
2021/06/07 04:56:20;;;;;;;30.07;19.80;;;17.30;1.00;;;;;;5080260;28;20450;-72
2021/06/07 04:58:47;;;;;;;5.50;5.00;;;17.30;1.00;;;;;;5081006;28;20451;-72
2021/06/07 05:01:14;;;;;;;4.60;3.93;;;17.30;1.00;;;;;;5080048;28;20520;-72
2021/06/07 05:03:41;;;;;;;5.57;4.67;;;17.40;1.00;;;;;;5080339;28;20783;-72
2021/06/07 05:06:09;;;;;;;8.33;4.90;;;17.40;1.00;;;;;;5080450;28;20742;-72
2021/06/07 05:08:35;;;;;;;4.63;3.60;;;17.40;1.00;;;;;;5079791;28;20828;-72
2021/06/07 05:11:02;;;;;;;5.27;3.70;;;17.40;1.00;;;;;;5080169;28;20470;-72
2021/06/07 05:13:29;;;;;;;7.97;4.53;;;17.50;1.00;;;;;;5080971;28;20469;-71
2021/06/07 05:15:56;;;;;;;6.20;4.33;;;17.50;1.00;;;;;;5080677;28;20450;-71
2021/06/07 05:18:22;;;;;;;5.80;4.40;;;17.60;1.00;;;;;;5080947;28;20490;-71
2021/06/07 05:20:51;;;;;;;5.37;4.00;;;17.60;1.00;;;;;;5080315;28;20462;-71
2021/06/07 05:23:19;;;;;;;5.97;3.83;;;17.60;1.00;;;;;;5080313;28;20509;-72
2021/06/07 05:25:46;;;;;;;4.03;3.67;;;17.70;1.00;;;;;;5080672;28;20842;-71
2021/06/07 05:28:14;;;;;;;5.37;3.50;;;17.80;1.00;;;;;;5079890;28;20458;-71
2021/06/07 05:30:42;;;;;;;6.40;4.07;;;17.80;1.00;;;;;;5080926;28;20473;-72
2021/06/07 05:33:09;;;;;;;5.03;3.90;;;17.90;1.00;;;;;;5080896;28;20454;-72
2021/06/07 05:35:37;;;;;;;4.90;4.50;;;17.90;1.00;;;;;;5079920;28;20450;-72
2021/06/07 05:38:04;;;;;;;6.83;3.77;;;18.00;1.00;;;;;;5080244;28;20469;-72
2021/06/07 05:40:32;;;;;;;3.70;3.40;;;18.00;1.00;;;;;;5081115;28;20469;-70
2021/06/07 05:42:59;;;;;;;5.23;4.33;;;18.10;1.00;;;;;;5080797;28;20462;-70
2021/06/07 05:45:26;;;;;;;3.77;3.47;;;18.20;1.00;;;;;;5076804;28;20474;-71
2021/06/07 05:47:56;;;;;;;8.00;4.13;;;18.20;1.00;;;;;;5075513;28;20458;-71
2021/06/07 05:50:23;;;;;;;4.40;3.97;;;18.20;1.00;;;;;;5075145;28;20454;-70
2021/06/07 05:52:50;;;;;;;8.93;5.47;;;18.30;1.00;;;;;;5075218;28;20458;-70
2021/06/07 05:55:17;;;;;;;3.90;3.50;;;18.40;1.00;;;;;;5075115;28;20926;-71
2021/06/07 05:57:45;;;;;;;4.33;3.20;;;18.60;1.00;;;;;;5075557;28;20613;-69
2021/06/07 06:00:13;;;;;;;3.67;3.30;;;18.60;1.00;;;;;;5075316;28;20458;-70
2021/06/07 06:02:39;;;;;;;4.27;3.23;;;18.70;1.00;;;;;;5074925;28;20450;-70
2021/06/07 06:05:07;;;;;;;4.83;3.60;;;18.70;1.00;;;;;;5075068;28;20985;-70
2021/06/07 06:07:33;;;;;;;4.53;3.07;;;18.80;1.00;;;;;;5075072;28;20504;-70
2021/06/07 06:09:59;;;;;;;3.60;2.90;;;18.90;1.00;;;;;;5076285;28;20587;-70
2021/06/07 06:12:25;;;;;;;5.60;3.40;;;18.90;1.00;;;;;;5076043;28;20485;-70
2021/06/07 06:14:53;;;;;;;9.20;3.20;;;19.00;1.00;;;;;;5076221;28;20458;-70
2021/06/07 06:17:19;;;;;;;3.70;3.23;;;19.00;1.00;;;;;;5075654;28;20458;-70
2021/06/07 06:19:45;;;;;;;3.83;3.37;;;19.00;1.00;;;;;;5075034;28;20515;-69
2021/06/07 06:22:13;;;;;;;3.60;2.97;;;19.00;1.00;;;;;;5074386;28;20490;-69
2021/06/07 06:24:39;;;;;;;6.63;3.03;;;19.10;1.00;;;;;;5074743;28;20473;-69
2021/06/07 06:27:06;;;;;;;4.67;2.93;;;19.10;1.00;;;;;;5074689;28;20771;-68
2021/06/07 06:29:32;;;;;;;4.97;4.00;;;19.20;1.00;;;;;;5074655;28;20465;-70
2021/06/07 06:32:00;;;;;;;3.20;2.90;;;19.20;1.00;;;;;;5074728;28;20454;-69
2021/06/07 06:34:26;;;;;;;3.37;3.07;;;19.30;1.00;;;;;;5075064;28;20454;-69
2021/06/07 06:36:52;;;;;;;8.70;3.73;;;19.30;1.00;;;;;;5075073;28;20507;-69
2021/06/07 06:39:19;;;;;;;4.73;3.10;;;19.40;1.00;;;;;;5074883;28;20511;-70
2021/06/07 06:41:45;;;;;;;4.27;3.53;;;19.40;1.00;;;;;;5074730;28;20465;-70
2021/06/07 06:44:11;;;;;;;3.20;3.00;;;19.50;1.00;;;;;;5074221;28;20446;-69
2021/06/07 06:46:37;;;;;;;4.60;3.40;;;19.50;1.00;;;;;;5074604;28;20481;-69
2021/06/07 06:49:05;;;;;;;4.50;3.80;;;19.60;1.00;;;;;;5074624;28;20454;-69
2021/06/07 06:51:31;;;;;;;3.80;3.50;;;19.70;1.00;;;;;;5074471;28;20465;-69
2021/06/07 06:53:57;;;;;;;8.43;4.03;;;19.70;1.00;;;;;;5074748;28;20465;-70
2021/06/07 06:56:24;;;;;;;3.70;3.37;;;19.80;1.00;;;;;;5074484;28;20454;-68
2021/06/07 06:58:50;;;;;;;5.73;3.47;;;19.90;1.00;;;;;;5074866;28;20458;-69
2021/06/07 07:01:17;;;;;;;6.20;3.30;;;19.90;1.00;;;;;;5077466;28;20465;-69
2021/06/07 07:03:47;;;;;;;5.70;3.00;;;20.00;1.00;;;;;;5078863;28;20476;-69
2021/06/07 07:06:15;;;;;;;7.80;3.30;;;20.00;1.00;;;;;;5079083;28;20852;-69
2021/06/07 07:08:42;;;;;;;3.80;3.33;;;20.10;1.00;;;;;;5079058;28;20465;-69
2021/06/07 07:11:10;;;;;;;4.53;2.80;;;20.20;1.00;;;;;;5078942;28;20462;-69
2021/06/07 07:13:37;;;;;;;3.97;3.60;;;20.30;1.00;;;;;;5079286;28;20469;-69
2021/06/07 07:16:04;;;;;;;5.60;3.17;;;20.30;1.00;;;;;;5078802;28;20492;-69
2021/06/07 07:18:31;;;;;;;5.60;3.70;;;20.40;1.00;;;;;;5078921;28;20454;-70
2021/06/07 07:20:58;;;;;;;3.80;3.30;;;20.50;1.00;;;;;;5078478;28;20458;-70
2021/06/07 07:23:26;;;;;;;3.40;3.10;;;20.60;1.00;;;;;;5078018;28;20477;-70
2021/06/07 07:25:59;;;;;;;6.10;3.53;;;20.60;1.00;;;;;;5078359;28;20543;-70
2021/06/07 07:28:26;;;;;;;5.63;3.30;;;20.70;1.00;;;;;;5078636;28;20546;-69
2021/06/07 07:30:54;;;;;;;4.23;2.80;;;20.80;1.00;;;;;;5079132;28;20454;-69
2021/06/07 07:33:21;;;;;;;5.03;3.00;;;20.80;1.00;;;;;;5078530;28;20465;-69
2021/06/07 07:35:48;;;;;;;3.50;3.20;;;20.90;1.00;;;;;;5078580;28;20458;-69
2021/06/07 07:38:15;;;;;;;4.37;3.50;;;20.90;1.00;;;;;;5078464;28;20549;-69
2021/06/07 07:40:45;;;;;;;2.90;2.60;;;21.00;1.00;;;;;;5079125;28;20549;-69
2021/06/07 07:43:12;;;;;;;3.40;3.10;;;21.00;1.00;;;;;;5078897;28;20466;-70
2021/06/07 07:45:39;;;;;;;3.43;3.13;;;21.10;1.00;;;;;;5078255;28;20482;-70
2021/06/07 07:48:07;;;;;;;3.13;2.77;;;21.20;1.00;;;;;;5078226;28;20467;-70
2021/06/07 07:50:37;;;;;;;4.70;3.47;;;21.20;1.00;;;;;;5078140;28;20462;-72
2021/06/07 07:53:04;;;;;;;3.97;3.50;;;21.30;1.00;;;;;;5078277;28;20544;-71
2021/06/07 07:55:32;;;;;;;6.63;3.43;;;21.30;1.00;;;;;;5077770;28;20535;-71
2021/06/07 07:58:01;;;;;;;3.80;3.37;;;21.40;1.00;;;;;;5078317;28;20493;-70
2021/06/07 08:00:29;;;;;;;3.63;3.10;;;21.40;1.00;;;;;;5077634;28;20469;-70
2021/06/07 08:02:58;;;;;;;4.73;3.07;;;21.50;1.00;;;;;;5078358;28;20476;-70
2021/06/07 08:05:24;;;;;;;5.73;3.13;;;21.50;1.00;;;;;;5078014;28;20534;-70
2021/06/07 08:07:53;;;;;;;4.63;3.57;;;21.60;1.00;;;;;;5078767;28;20489;-68
2021/06/07 08:10:20;;;;;;;3.40;3.10;;;21.70;1.00;;;;;;5077479;28;20782;-69
2021/06/07 08:12:46;;;;;;;2.93;2.73;;;21.80;1.00;;;;;;5076946;28;20454;-68
2021/06/07 08:15:15;;;;;;;3.53;3.23;;;21.80;1.00;;;;;;5077815;28;20465;-68
2021/06/07 08:17:41;;;;;;;8.07;3.20;;;21.90;1.00;;;;;;5077192;28;20543;-68
2021/06/07 08:20:10;;;;;;;4.00;3.10;;;22.00;1.00;;;;;;5077491;28;20454;-69
2021/06/07 08:22:36;;;;;;;6.97;2.80;;;22.10;1.00;;;;;;5077082;28;20482;-68
2021/06/07 08:25:03;;;;;;;3.60;3.13;;;22.10;1.00;;;;;;5076919;28;20966;-69
2021/06/07 08:27:30;;;;;;;4.70;3.03;;;22.20;1.00;;;;;;5077289;28;20828;-68
2021/06/07 08:29:56;;;;;;;6.47;3.40;;;22.30;1.00;;;;;;5077687;28;20462;-68
2021/06/07 08:32:24;;;;;;;5.90;3.80;;;22.30;1.00;;;;;;5077610;28;20462;-68
2021/06/07 08:34:50;;;;;;;3.40;2.97;;;22.30;1.00;;;;;;5076864;28;20458;-68
2021/06/07 08:37:17;;;;;;;3.67;3.10;;;22.30;1.00;;;;;;5077267;28;20461;-67
2021/06/07 08:39:43;;;;;;;4.07;3.23;;;22.40;1.00;;;;;;5077449;28;20458;-68
2021/06/07 08:42:10;;;;;;;4.63;3.57;;;22.40;1.00;;;;;;5077002;28;20455;-69
2021/06/07 08:44:37;;;;;;;6.27;3.20;;;22.50;1.00;;;;;;5076932;28;20484;-68
2021/06/07 08:47:03;;;;;;;4.73;2.87;;;22.60;1.00;;;;;;5076794;28;20486;-69
2021/06/07 08:49:31;;;;;;;3.70;2.97;;;22.70;1.00;;;;;;5076390;28;20828;-69
2021/06/07 08:51:57;;;;;;;3.40;3.10;;;22.80;1.00;;;;;;5076436;28;20454;-68
2021/06/07 08:54:24;;;;;;;3.70;3.40;;;22.80;1.00;;;;;;5076380;28;20523;-68
2021/06/07 08:56:50;;;;;;;3.20;2.90;;;22.90;1.00;;;;;;5076776;28;20465;-68
2021/06/07 08:59:16;;;;;;;3.50;3.20;;;22.90;1.00;;;;;;5076281;28;20983;-69
2021/06/07 09:01:44;;;;;;;4.33;3.40;;;23.00;1.00;;;;;;5076706;28;20455;-68
2021/06/07 09:04:11;;;;;;;3.73;3.40;;;23.10;1.00;;;;;;5076205;28;20454;-68
2021/06/07 09:06:44;;;;;;;3.47;3.10;;;23.10;1.00;;;;;;5076275;28;20482;-69
2021/06/07 09:09:11;;;;;;;3.70;3.40;;;23.20;1.00;;;;;;5076353;28;20524;-68
2021/06/07 09:11:47;;;;;;;4.07;3.70;;;23.20;1.00;;;;;;5075546;28;20459;-69
2021/06/07 09:14:18;;;;;;;3.60;3.30;;;23.30;1.00;;;;;;5076277;28;20793;-69
2021/06/07 09:16:44;;;;;;;4.90;3.30;;;23.30;1.00;;;;;;5075437;28;20923;-68
2021/06/07 09:19:22;;;;;;;3.77;3.23;;;23.40;1.00;;;;;;5075774;28;20462;-68
2021/06/07 09:21:50;;;;;;;3.77;3.43;;;23.40;1.00;;;;;;5075685;28;21086;-68
2021/06/07 09:24:17;;;;;;;3.10;2.90;;;23.40;1.00;;;;;;5075033;28;20438;-68
2021/06/07 09:26:45;;;;;;;5.43;3.43;;;23.50;1.00;;;;;;5075659;28;20627;-69
2021/06/07 09:29:30;;;;;;;4.03;3.30;;;23.50;1.00;;;;;;5076207;28;20519;-68
2021/06/07 09:31:58;;;;;;;5.30;3.10;;;23.50;1.00;;;;;;5075967;28;20894;-68
2021/06/07 09:34:25;;;;;;;4.17;3.40;;;23.60;1.00;;;;;;5075867;28;20466;-68
2021/06/07 09:36:53;;;;;;;3.13;2.70;;;23.60;1.00;;;;;;5075686;28;20454;-68
2021/06/07 09:39:21;;;;;;;4.40;2.80;;;23.70;1.00;;;;;;5075572;28;20511;-68
2021/06/07 09:41:51;;;;;;;4.17;3.20;;;23.70;1.00;;;;;;5076024;28;20464;-68
2021/06/07 09:44:23;;;;;;;3.27;2.93;;;23.80;1.00;;;;;;5075826;28;20520;-68
2021/06/07 09:46:50;;;;;;;2.90;2.70;;;23.90;1.00;;;;;;5075769;28;20539;-68
2021/06/07 09:49:19;;;;;;;2.83;2.53;;;24.00;1.00;;;;;;5076192;28;20454;-68
2021/06/07 09:51:54;;;;;;;3.13;2.90;;;24.10;1.00;;;;;;5076142;28;20466;-67
2021/06/07 09:54:20;;;;;;;3.87;3.17;;;24.10;1.00;;;;;;5075866;28;20435;-69
2021/06/07 09:56:52;;;;;;;2.73;2.53;;;24.10;1.00;;;;;;5075694;28;20512;-67
2021/06/07 09:59:27;;;;;;;5.53;2.83;;;24.20;1.00;;;;;;5076049;28;20463;-67
2021/06/07 10:01:55;;;;;;;4.43;2.93;;;24.20;1.00;;;;;;5076291;28;20477;-68
2021/06/07 10:04:22;;;;;;;3.57;2.53;;;24.30;1.00;;;;;;5076714;28;20473;-68
2021/06/07 10:06:48;;;;;;;4.47;2.43;;;24.30;1.00;;;;;;5075680;28;20477;-68
2021/06/07 10:09:20;;;;;;;3.03;2.80;;;24.40;1.00;;;;;;5075591;28;20775;-68
2021/06/07 10:11:46;;;;;;;3.37;2.67;;;24.40;1.00;;;;;;5075992;28;20443;-68
2021/06/07 10:14:15;;;;;;;3.00;2.67;;;24.50;1.00;;;;;;5075261;28;20458;-69
2021/06/07 10:16:53;;;;;;;4.10;2.97;;;24.50;1.00;;;;;;5075627;28;20892;-71
2021/06/07 10:19:20;;;;;;;3.27;2.97;;;24.60;1.00;;;;;;5075225;28;20809;-70
2021/06/07 10:21:48;;;;;;;4.53;2.73;;;24.70;1.00;;;;;;5075260;28;20465;-69
2021/06/07 10:24:16;;;;;;;8.33;2.80;;;24.70;1.00;;;;;;5075341;28;20552;-69
2021/06/07 10:26:44;;;;;;;2.60;2.40;;;24.80;1.00;;;;;;5075058;28;20508;-69
2021/06/07 10:29:11;;;;;;;8.23;2.87;;;24.90;1.00;;;;;;5075235;28;20484;-68
2021/06/07 10:31:39;;;;;;;3.30;3.00;;;25.00;1.00;;;;;;5075179;28;20455;-69
2021/06/07 10:34:07;;;;;;;4.83;3.10;;;25.00;1.00;;;;;;5075422;28;20451;-69
2021/06/07 10:36:42;;;;;;;4.60;3.00;;;25.00;1.00;;;;;;5074599;28;20458;-68
2021/06/07 10:39:27;;;;;;;3.70;3.40;;;25.10;1.00;;;;;;5075094;28;20498;-69
2021/06/07 10:42:17;;;;;;;8.57;3.60;;;25.20;1.00;;;;;;5075434;28;20434;-68
2021/06/07 10:44:45;;;;;;;3.07;2.87;;;25.30;1.00;;;;;;5073779;28;20890;-69
2021/06/07 10:47:13;;;;;;;3.87;2.80;;;25.30;1.00;;;;;;5074989;28;20841;-69
2021/06/07 10:49:42;;;;;;;4.10;3.10;;;25.40;1.00;;;;;;5074970;28;20779;-68
2021/06/07 10:52:12;;;;;;;3.30;3.00;;;25.50;1.00;;;;;;5075228;28;20454;-69
2021/06/07 10:54:41;;;;;;;3.30;3.00;;;25.60;1.00;;;;;;5074412;28;20465;-69
2021/06/07 10:57:36;;;;;;;3.60;2.90;;;25.70;1.00;;;;;;5075129;28;20466;-69
2021/06/07 11:00:14;;;;;;;2.53;2.33;;;25.80;1.00;;;;;;5075016;28;20454;-69
2021/06/07 11:02:42;;;;;;;6.13;2.60;;;25.90;1.00;;;;;;5074747;28;20444;-68
2021/06/07 11:05:12;;;;;;;3.53;2.60;;;26.00;1.00;;;;;;5075115;28;20531;-68
2021/06/07 11:07:43;;;;;;;3.30;3.00;;;26.10;1.00;;;;;;5074928;28;20489;-68
2021/06/07 11:10:23;;;;;;;2.53;2.33;;;26.20;1.00;;;;;;5074547;28;20473;-69
2021/06/07 11:12:51;;;;;;;2.50;2.30;;;26.30;1.00;;;;;;5075125;28;20460;-71
2021/06/07 11:15:20;;;;;;;3.20;2.90;;;26.40;1.00;;;;;;5074579;28;20469;-68
2021/06/07 11:17:47;;;;;;;2.67;2.47;;;26.60;1.00;;;;;;5074860;28;20469;-69
2021/06/07 11:20:14;;;;;;;3.40;3.20;;;26.80;1.00;;;;;;5074583;28;20454;-68
2021/06/07 11:23:08;;;;;;;4.80;2.40;;;27.30;1.00;;;;;;5074288;28;20482;-69
2021/06/07 11:25:49;;;;;;;2.50;2.30;;;28.10;1.00;;;;;;5072742;28;20958;-69
2021/06/07 11:28:41;;;;;;;2.50;2.30;;;29.10;1.00;;;;;;5074607;28;20449;-68
2021/06/07 11:31:50;;;;;;;2.47;2.27;;;30.10;1.00;;;;;;5074709;28;20500;-68
2021/06/07 11:34:20;;;;;;;3.30;2.43;;;31.10;1.00;;;;;;5074544;28;20914;-69
2021/06/07 11:36:58;;;;;;;3.57;2.40;;;31.80;1.00;;;;;;5074590;28;20595;-69
2021/06/07 11:39:26;;;;;;;2.90;2.60;;;32.40;1.00;;;;;;5075276;28;20434;-69
2021/06/07 11:42:02;;;;;;;2.50;2.30;;;32.90;1.00;;;;;;5074629;28;20450;-69
2021/06/07 11:44:56;;;;;;;2.27;2.17;;;33.60;1.00;;;;;;5074865;28;20486;-68
2021/06/07 11:47:24;;;;;;;2.53;2.30;;;34.20;1.00;;;;;;5075653;28;20465;-69
2021/06/07 11:50:10;;;;;;;2.43;2.23;;;34.40;1.00;;;;;;5077702;28;20458;-69
2021/06/07 11:52:48;;;;;;;4.87;2.50;;;34.70;1.00;;;;;;5077152;28;20438;-69
2021/06/07 11:55:34;;;;;;;3.00;2.60;;;35.10;1.00;;;;;;5077935;28;20453;-69
2021/06/07 11:58:23;;;;;;;4.13;2.50;;;35.50;1.00;;;;;;5078259;28;20542;-67
2021/06/07 12:00:52;;;;;;;2.53;2.33;;;35.80;1.00;;;;;;5077406;28;20897;-69
2021/06/07 12:03:22;;;;;;;1.93;1.83;;;36.20;1.00;;;;;;5077798;28;20465;-69
2021/06/07 12:05:48;;;;;;;2.60;2.40;;;36.60;1.00;;;;;;5077524;28;20484;-69
2021/06/07 12:08:17;;;;;;;4.03;2.27;;;36.70;1.00;;;;;;5077541;28;20785;-69
2021/06/07 12:10:48;;;;;;;5.80;2.63;;;36.40;1.00;;;;;;5077451;28;20462;-68
2021/06/07 12:13:21;;;;;;;3.57;2.40;;;36.30;1.00;;;;;;5077989;28;20443;-69
2021/06/07 12:15:54;;;;;;;2.43;2.20;;;36.40;1.00;;;;;;5077066;28;20784;-68
2021/06/07 12:18:48;;;;;;;3.80;2.07;;;36.70;1.00;;;;;;5076856;28;20453;-69
2021/06/07 12:21:17;;;;;;;2.30;2.10;;;36.90;1.00;;;;;;5053179;28;20461;-68
2021/06/07 12:23:47;;;;;;;2.13;1.93;;;36.80;1.00;;;;;;5076955;28;20474;-69
2021/06/07 12:29:30;;;;;;;2.43;2.23;;;36.40;1.00;;;;;;5077321;28;20889;-68
2021/06/07 12:32:09;;;;;;;2.73;2.20;;;36.10;1.00;;;;;;5078398;28;20958;-70
2021/06/07 12:34:37;;;;;;;2.33;2.13;;;36.20;1.00;;;;;;5077399;28;20438;-68
2021/06/07 12:37:05;;;;;;;2.53;2.37;;;36.40;1.00;;;;;;5077436;28;20784;-68
2021/06/07 12:39:31;;;;;;;2.87;2.60;;;36.60;1.00;;;;;;5076732;28;20462;-68
2021/06/07 12:41:58;;;;;;;2.97;2.63;;;36.70;1.00;;;;;;5076769;28;20470;-68
2021/06/07 12:44:25;;;;;;;2.50;2.23;;;36.70;1.00;;;;;;5076580;28;20519;-68
2021/06/07 12:46:53;;;;;;;4.07;2.20;;;36.70;1.00;;;;;;5076241;28;20989;-69
2021/06/07 12:49:25;;;;;;;2.90;2.60;;;36.80;1.00;;;;;;5076256;28;20465;-68
2021/06/07 12:51:58;;;;;;;3.63;2.43;;;36.80;1.00;;;;;;5076517;28;20868;-69
2021/06/07 12:54:27;;;;;;;3.63;2.60;;;36.70;1.00;;;;;;5076617;28;20799;-69
2021/06/07 12:56:53;;;;;;;3.10;2.27;;;36.90;1.00;;;;;;5077165;28;20458;-68
2021/06/07 12:59:27;;;;;;;3.03;2.13;;;37.00;1.00;;;;;;5076735;28;20461;-68
2021/06/07 13:01:54;;;;;;;2.40;2.20;;;37.00;1.00;;;;;;5076045;28;20922;-69
2021/06/07 13:04:27;;;;;;;3.20;2.50;;;37.10;1.00;;;;;;5076419;28;20927;-68
2021/06/07 13:06:53;;;;;;;2.77;2.20;;;37.20;1.00;;;;;;5076091;28;21015;-67
2021/06/07 13:09:31;;;;;;;3.23;2.17;;;37.20;1.00;;;;;;5076392;28;20454;-67